Friday, January 18, 2019, 3:13 AM EST
Back to Local

KTAN, Taunton Municipal Airport

Location: East Taunton, MA, United States Lat: 41.883
Local Time: 3:13 AM EST ( 8:13 GMT) Lon: -71.017
Time Zone: US/Eastern Elev: 42 ft

Show me the last for .
Show Coded

Time T Td Feel RH Dir Speed Gust Alt SLP Vis Weather Sky Remarks
2019-01-18 02:52 25 11 - 54 - Calm - 30.25 30.25 10 BKN050 OVC070 None
2019-01-18 01:52 24 8 - 49 - Calm - 30.26 30.25 10 OVC090 None
2019-01-18 00:52 24 7 18 47 80° 5 - 30.26 30.25 10 BKN110 6-hr Min Temp (1am): 19.9°F
6-hr Max Temp (1am): 25.0°F
2019-01-17 23:52 21 12 16 67 130° 3 - 30.30 30.30 10 SCT120 24-hr Min Temp (12am): 19.9°F
24-hr Max Temp (12am): 32.0°F
2019-01-17 22:52 23 10 - 56 - Calm - 30.33 30.33 10 CLR None
2019-01-17 21:52 25 12 - 57 - Calm - 30.33 30.33 10 CLR None
2019-01-17 20:52 25 10 21 52 120° 3 - 30.33 30.33 10 CLR None
2019-01-17 19:52 24 9 - 51 - Calm - 30.35 30.35 10 CLR None
2019-01-17 18:52 25 7 19 45 120° 5 - 30.36 30.35 10 FEW120 6-hr Min Temp (7pm): 21.9°F
6-hr Max Temp (7pm): 30.9°F
2019-01-17 17:52 25 4 19 39 110° 5 - 30.34 30.34 10 CLR None
2019-01-17 16:52 25 0 - 32 - Calm - 30.34 30.34 10 CLR None
2019-01-17 15:52 29 -6 - 21 - Calm - 30.34 30.34 10 CLR None
2019-01-17 14:52 30 -6 - 20 - Calm - 30.34 30.34 10 CLR None
2019-01-17 13:52 29 -5 - 21 - Calm - 30.35 30.35 10 CLR None
2019-01-17 12:52 30 -3 24 23 Variable 6 - 30.36 30.36 10 CLR 6-hr Min Temp (1pm): 19.9°F
6-hr Max Temp (1pm): 30.0°F
2019-01-17 11:52 27 -4 23 25 10° 3 - 30.38 30.38 10 CLR None
2019-01-17 10:52 26 -3 19 27 340° 6 - 30.40 30.40 10 CLR None
2019-01-17 09:52 23 -1 15 34 320° 7 - 30.41 30.40 10 CLR None
2019-01-17 08:52 22 0 14 37 310° 6 - 30.39 30.39 10 CLR None
2019-01-17 07:52 20 -2 11 37 320° 7 - 30.35 30.35 10 CLR None
2019-01-17 06:52 21 -1 13 37 320° 6 - 30.33 30.33 10 CLR 6-hr Min Temp (7am): 21.0°F
6-hr Max Temp (7am): 30.9°F
2019-01-17 05:52 23 1 14 37 330° 8 - 30.31 30.31 10 CLR None
2019-01-17 04:52 25 4 17 39 330° 7 - 30.28 30.28 10 CLR None
2019-01-17 03:52 27 9 19 45 320° 8 - 30.25 30.25 10 CLR None

Support USWX by starting your Amazon purchase here.